| time (UTC) | temp F | wind direction | speed knots | gust knots | rain 1hr in | rain 24hr in | rain mn in | humidity % | barometer mb |
| 20260508160728 | 66 | 182 | 5.2 | 7.0 | 0.00 | 0.00 | 0.00 | 48 | 1014.0 |
| 20260508155224 | 0 | 0.0 | 13.0 | 0.00 | 0.00 | 0.00 | 1014.3 | ||
| 20260508153718 | 63 | 228 | 0.0 | 7.0 | 0.00 | 0.00 | 0.00 | 50 | 1014.7 |
| 20260508152214 | 63 | 272 | 2.6 | 4.3 | 0.00 | 0.00 | 0.00 | 50 | 1014.7 |
| 20260508150710 | 62 | 267 | 2.6 | 8.7 | 0.00 | 0.00 | 0.00 | 49 | 1014.8 |
| 20260508145205 | 61 | 356 | 0.0 | 8.7 | 0.00 | 0.00 | 0.00 | 50 | 1014.8 |
| 20260508145159 | 59 | 229 | 5.2 | 11.3 | 0.00 | 0.00 | 0.00 | 54 | 1014.8 |
| 20260508142157 | 57 | 184 | 0.0 | 8.7 | 0.00 | 0.00 | 0.00 | 57 | 1014.9 |
| 20260508140654 | 56 | 229 | 1.7 | 7.0 | 0.00 | 0.00 | 0.00 | 58 | 1015.0 |
| 20260508135152 | 54 | 146 | 1.7 | 4.3 | 0.00 | 0.00 | 0.00 | 67 | 1015.1 |
| 20260508133652 | 52 | 114 | 0.0 | 0.0 | 0.00 | 0.00 | 0.00 | 73 | 1015.2 |
| 20260508132150 | 51 | 52 | 0.0 | 4.3 | 0.00 | 0.00 | 0.00 | 77 | 1015.1 |
| 20260508130649 | 49 | 129 | 0.0 | 7.0 | 0.00 | 0.00 | 0.00 | 78 | 1015.3 |
| 20260508125150 | 47 | 204 | 1.7 | 7.0 | 0.00 | 0.00 | 0.00 | 80 | 1015.2 |
| 20260508123649 | 46 | 121 | 0.9 | 4.3 | 0.00 | 0.00 | 0.00 | 83 | 1015.2 |
| 20260508122153 | 42 | 124 | 0.0 | 4.3 | 0.00 | 0.00 | 0.00 | 89 | 1015.2 |
| 20260508122149 | 45 | 177 | 0.0 | 1.7 | 0.00 | 0.00 | 0.00 | 85 | 1015.3 |
| 20260508120646 | 43 | 59 | 3.5 | 8.7 | 0.00 | 0.00 | 0.00 | 86 | 1015.3 |
| 20260508113640 | 40 | 80 | 0.0 | 1.7 | 0.00 | 0.00 | 0.00 | 94 | 1015.0 |
| 20260508112136 | 40 | 118 | 0.0 | 4.3 | 0.00 | 0.00 | 0.00 | 95 | 1014.8 |
| 20260508110638 | 38 | 109 | 0.0 | 0.0 | 0.00 | 0.00 | 0.00 | 99 | 1014.8 |
| 20260508110634 | 39 | 129 | 0.0 | 1.7 | 0.00 | 0.00 | 0.00 | 98 | 1015.0 |
| 20260508103633 | 38 | 128 | 0.0 | 0.0 | 0.00 | 0.00 | 0.00 | 99 | 1014.8 |
| 20260508102134 | 38 | 132 | 0.0 | 0.0 | 0.00 | 0.00 | 0.00 | 99 | 1014.7 |
| 20260508102129 | 38 | 91 | 0.0 | 0.0 | 0.00 | 0.00 | 0.00 | 99 | 1014.6 |
| 20260508095126 | 38 | 124 | 0.0 | 0.0 | 0.00 | 0.00 | 0.00 | 99 | 1014.6 |
| 20260508093622 | 38 | 122 | 0.0 | 0.0 | 0.00 | 0.00 | 0.00 | 99 | 1014.7 |
| 20260508092121 | 38 | 128 | 0.0 | 0.0 | 0.00 | 0.00 | 0.00 | 99 | 1014.5 |
| 20260508090617 | 39 | 138 | 0.0 | 0.0 | 0.00 | 0.00 | 0.00 | 99 | 1014.5 |
| 20260508085118 | 39 | 134 | 0.0 | 0.0 | 0.00 | 0.00 | 0.00 | 98 | 1014.5 |
| 20260508083618 | 39 | 162 | 0.0 | 0.0 | 0.00 | 0.00 | 0.00 | 98 | 1014.4 |
| 20260508082117 | 39 | 153 | 0.0 | 0.0 | 0.00 | 0.00 | 0.00 | 98 | 1014.2 |
| 20260508080617 | 39 | 137 | 0.0 | 0.0 | 0.00 | 0.00 | 0.00 | 98 | 1014.3 |
| 20260508080612 | 40 | 176 | 0.0 | 0.0 | 0.00 | 0.00 | 0.00 | 98 | 1014.2 |
| 20260508073608 | 40 | 131 | 0.0 | 0.0 | 0.00 | 0.00 | 0.00 | 98 | 1014.3 |
| 20260508072105 | 40 | 169 | 0.0 | 0.0 | 0.00 | 0.00 | 0.00 | 97 | 1014.4 |
| 20260508070605 | 40 | 144 | 0.0 | 0.0 | 0.00 | 0.00 | 0.00 | 97 | 1014.4 |
| 20260508065103 | 40 | 97 | 0.0 | 1.7 | 0.00 | 0.00 | 0.00 | 97 | 1014.6 |
| 20260508063608 | 41 | 154 | 0.0 | 0.0 | 0.00 | 0.00 | 0.00 | 97 | 1014.6 |
| 20260508063603 | 40 | 104 | 0.0 | 0.0 | 0.00 | 0.00 | 0.00 | 97 | 1014.7 |
| 20260508060602 | 41 | 154 | 0.0 | 0.0 | 0.00 | 0.00 | 0.00 | 96 | 1014.7 |
| 20260508055059 | 41 | 133 | 0.0 | 0.0 | 0.00 | 0.00 | 0.00 | 96 | 1014.6 |
| 20260508053557 | 42 | 150 | 0.0 | 0.0 | 0.00 | 0.00 | 0.00 | 95 | 1014.8 |
| 20260508052053 | 42 | 176 | 0.0 | 0.0 | 0.00 | 0.00 | 0.00 | 93 | 1014.8 |
| 20260508050551 | 42 | 171 | 0.0 | 0.0 | 0.00 | 0.00 | 0.00 | 94 | 1014.9 |
| 20260508045053 | 43 | 107 | 0.0 | 0.0 | 0.00 | 0.00 | 0.00 | 93 | 1014.9 |
| 20260508045048 | 43 | 145 | 0.0 | 0.0 | 0.00 | 0.00 | 0.00 | 94 | 1014.9 |
| 20260508043653 | 43 | 70 | 0.0 | 0.0 | 0.00 | 0.00 | 0.00 | 91 | 1014.8 |
| 20260508040546 | 44 | 143 | 0.0 | 0.0 | 0.00 | 0.00 | 0.00 | 90 | 1014.7 |
| 20260508035045 | 44 | 140 | 0.0 | 0.0 | 0.00 | 0.00 | 0.00 | 89 | 1014.6 |
| 20260508033542 | 44 | 125 | 0.0 | 0.0 | 0.00 | 0.00 | 0.00 | 89 | 1014.8 |
| 20260508032038 | 46 | 121 | 0.0 | 0.0 | 0.00 | 0.00 | 0.00 | 87 | 1014.8 |
| 20260508030539 | 46 | 123 | 0.0 | 0.0 | 0.00 | 0.00 | 0.00 | 83 | 1014.7 |
| 20260508030533 | 0 | 0.0 | 0.0 | 0.00 | 0.00 | 0.00 | 1014.6 | ||
| 20260508023527 | 47 | 143 | 0.0 | 0.0 | 0.00 | 0.00 | 0.00 | 78 | 1014.6 |
| 20260508022023 | 0 | 0.0 | 0.0 | 0.00 | 0.00 | 0.00 | 1014.6 | ||
| 20260508020517 | 0 | 0.0 | 0.0 | 0.00 | 0.00 | 0.00 | 1014.6 | ||
| 20260508015010 | 0 | 0.0 | 8.7 | 0.00 | 0.00 | 0.00 | 1014.5 | ||
| 20260508013504 | 0 | 0.0 | 0.0 | 0.00 | 0.00 | 0.00 | 1014.4 | ||
| 20260508011958 | 0 | 0.0 | 0.0 | 0.00 | 0.00 | 0.00 | 1014.2 | ||
| 20260508010451 | 0 | 0.0 | 0.0 | 0.00 | 0.00 | 0.00 | 1014.2 | ||
| 20260508004945 | 65 | 46 | 4.3 | 0.0 | 0.00 | 0.00 | 0.00 | 38 | 1014.1 |
| 20260508003439 | 0 | 0.0 | 0.0 | 0.00 | 0.00 | 0.00 | 1013.9 | ||
| 20260508001936 | 57 | 319 | 0.0 | 0.0 | 0.00 | 0.00 | 0.00 | 47 | 1013.7 |
| 20260508001932 | 0 | 0.0 | 0.0 | 0.00 | 0.00 | 0.00 | 1013.7 | ||
| 20260508000426 | 58 | 334 | 2.6 | 4.3 | 0.00 | 0.00 | 0.00 | 44 | 1013.7 |
| 20260507234918 | 0 | 0.0 | 0.0 | 0.00 | 0.00 | 0.00 | 1013.6 | ||
| 20260507231911 | 59 | 3 | 2.6 | 4.3 | 0.00 | 0.00 | 0.00 | 44 | 1013.6 |
| 20260507230407 | 59 | 26 | 5.2 | 11.3 | 0.00 | 0.00 | 0.00 | 44 | 1013.4 |
| 20260507224902 | 0 | 0.0 | 0.0 | 0.00 | 0.00 | 0.00 | 1013.6 | ||
| 20260507223355 | -26 | 229 | 99.9 | 126.0 | 0.00 | 0.00 | 0.00 | 32 | 1013.4 |
| 20260507223344 | 0 | 0.0 | 0.0 | 0.00 | 0.00 | 0.00 | 1013.6 | ||
| 20260507221949 | 0 | 0.0 | 0.0 | 0.00 | 0.00 | 0.00 | 1013.6 | ||
| 20260507220337 | 60 | 301 | 8.7 | 21.7 | 0.00 | 0.00 | 0.00 | 42 | 1013.4 |
| 20260507213333 | 61 | 338 | 9.6 | 14.8 | 0.00 | 0.00 | 0.00 | 42 | 1013.2 |
| 20260507211829 | 0 | 0.0 | 4.3 | 0.00 | 0.00 | 0.00 | 1013.1 | ||
| 20260507210323 | 62 | 41 | 5.2 | 7.0 | 0.00 | 0.00 | 0.00 | 45 | 1012.9 |
| 20260507204819 | 62 | 312 | 3.5 | 11.3 | 0.00 | 0.00 | 0.00 | 42 | 1012.8 |
| 20260507203317 | 62 | 347 | 5.2 | 8.7 | 0.00 | 0.00 | 0.00 | 42 | 1012.8 |
| 20260507201818 | 63 | 305 | 7.8 | 11.3 | 0.00 | 0.00 | 0.00 | 40 | 1013.1 |
| 20260507201813 | 63 | 315 | 5.2 | 14.8 | 0.00 | 0.00 | 0.00 | 42 | 1013.1 |
| 20260507194808 | 62 | 342 | 0.0 | 8.7 | 0.00 | 0.00 | 0.00 | 40 | 1013.1 |
| 20260507193304 | 0 | 0.0 | 0.0 | 0.00 | 0.00 | 0.00 | 1013.3 | ||
| 20260507191800 | 68 | 16 | 4.3 | 8.7 | 0.00 | 0.00 | 0.00 | 41 | 1013.1 |
| 20260507191754 | 67 | 199 | 39.1 | 8.7 | 0.00 | 0.00 | 0.00 | 43 | 1013.3 |
| 20260507190249 | 68 | 25 | 3.5 | 13.0 | 0.00 | 0.00 | 0.00 | 41 | 1013.3 |
| 20260507184854 | 61 | 284 | 0.9 | 13.0 | 0.00 | 0.00 | 0.00 | 44 | 1013.4 |
| 20260507183241 | 61 | 64 | 5.2 | 13.0 | 0.00 | 0.00 | 0.00 | 40 | 1013.6 |
| 20260507180236 | 61 | 1 | 13.0 | 14.8 | 0.00 | 0.00 | 0.00 | 41 | 1013.4 |
| 20260507174738 | 61 | 320 | 11.3 | 13.0 | 0.00 | 0.00 | 0.00 | 45 | 1013.9 |
| 20260507174734 | 61 | 350 | 5.2 | 11.3 | 0.00 | 0.00 | 0.00 | 43 | 1013.8 |
| 20260507171734 | 60 | 273 | 3.5 | 14.8 | 0.00 | 0.00 | 0.00 | 46 | 1014.2 |
| 20260507171730 | 60 | 352 | 3.5 | 11.3 | 0.00 | 0.00 | 0.00 | 42 | 1014.0 |
| 20260507164728 | 60 | 305 | 1.7 | 20.0 | 0.00 | 0.00 | 0.00 | 48 | 1014.3 |
| 20260507163227 | 60 | 4 | 6.1 | 11.3 | 0.00 | 0.00 | 0.00 | 48 | 1014.3 |
| 20260507161730 | 59 | 342 | 0.9 | 8.7 | 0.00 | 0.00 | 0.00 | 45 | 1014.1 |
| 20260507161726 | 59 | 297 | 0.0 | 14.8 | 0.00 | 0.00 | 0.00 | 48 | 1014.4 |